createdAt,value
2023-03-27T00:00:35.051Z,0.00
2023-03-27T00:01:35.048Z,0.00
2023-03-27T00:02:35.158Z,0.00
2023-03-27T00:03:35.080Z,0.00
2023-03-27T00:04:35.051Z,0.00
2023-03-27T00:05:35.022Z,0.00
2023-03-27T00:06:35.026Z,0.00
2023-03-27T00:07:35.016Z,0.00
2023-03-27T00:08:35.003Z,0.00
2023-03-27T00:09:35.023Z,0.00
2023-03-27T00:10:34.981Z,0.00
2023-03-27T00:11:34.976Z,0.00
2023-03-27T00:12:34.987Z,0.00
2023-03-27T00:13:34.958Z,0.00
2023-03-27T00:14:34.979Z,0.00
2023-03-27T00:15:34.944Z,0.00
2023-03-27T00:16:34.940Z,0.00
2023-03-27T00:17:34.988Z,0.00
2023-03-27T00:18:34.950Z,0.00
2023-03-27T00:19:34.938Z,0.00
2023-03-27T00:20:34.905Z,0.00
2023-03-27T00:21:34.912Z,0.00
2023-03-27T00:22:34.892Z,0.00
2023-03-27T00:23:34.901Z,0.00
2023-03-27T00:24:34.911Z,0.00
2023-03-27T00:25:34.880Z,0.00
2023-03-27T00:26:34.866Z,0.00
2023-03-27T00:27:34.861Z,0.00
2023-03-27T00:28:34.843Z,0.00
2023-03-27T00:29:35.573Z,0.00
2023-03-27T00:30:34.885Z,0.00
2023-03-27T00:31:34.824Z,0.00
2023-03-27T00:32:34.926Z,0.00
2023-03-27T00:33:34.809Z,0.00
2023-03-27T00:34:34.818Z,0.00
2023-03-27T00:35:34.850Z,0.00
2023-03-27T00:36:34.786Z,0.00
2023-03-27T00:37:34.783Z,0.00
2023-03-27T00:38:34.789Z,0.00
2023-03-27T00:39:34.795Z,0.00
2023-03-27T00:40:34.763Z,0.00
2023-03-27T00:41:34.747Z,0.00
2023-03-27T00:42:34.734Z,0.00
2023-03-27T00:43:34.717Z,0.00
2023-03-27T00:44:34.765Z,0.00
2023-03-27T00:45:34.711Z,0.00
2023-03-27T00:46:34.783Z,0.00
2023-03-27T00:47:34.720Z,0.00
2023-03-27T00:48:34.749Z,0.00
2023-03-27T00:49:34.689Z,0.00
2023-03-27T00:50:34.721Z,0.00
2023-03-27T00:51:34.665Z,0.00
2023-03-27T00:52:34.653Z,0.00
2023-03-27T00:53:34.675Z,0.00
2023-03-27T00:54:34.671Z,0.00
2023-03-27T00:55:34.645Z,0.00
2023-03-27T00:56:34.642Z,0.00
2023-03-27T00:57:34.619Z,0.00
2023-03-27T00:58:34.613Z,0.00
2023-03-27T00:59:34.622Z,0.00
2023-03-27T01:00:34.641Z,0.00
2023-03-27T01:01:34.600Z,0.00
2023-03-27T01:02:34.692Z,0.00
2023-03-27T01:03:34.680Z,0.00
2023-03-27T01:04:34.578Z,0.00
2023-03-27T01:05:34.605Z,0.00
2023-03-27T01:06:34.553Z,0.00
2023-03-27T01:07:34.548Z,0.00
2023-03-27T01:08:34.532Z,0.00
2023-03-27T01:09:34.597Z,0.00
2023-03-27T01:10:34.545Z,0.00
2023-03-27T01:11:34.521Z,0.00
2023-03-27T01:12:34.519Z,0.00
2023-03-27T01:13:34.505Z,0.00
2023-03-27T01:14:34.497Z,0.00
2023-03-27T01:15:34.515Z,0.00
2023-03-27T01:16:34.490Z,0.00
2023-03-27T01:17:34.518Z,0.00
2023-03-27T01:18:34.462Z,0.00
2023-03-27T01:19:34.455Z,0.00
2023-03-27T01:20:34.485Z,0.00
2023-03-27T01:21:34.443Z,0.00
2023-03-27T01:22:34.434Z,0.00
2023-03-27T01:23:58.737Z,0.00
2023-03-27T01:24:35.411Z,0.00
2023-03-27T01:25:34.445Z,0.00
2023-03-27T01:26:35.421Z,0.00
2023-03-27T01:27:34.399Z,0.00
2023-03-27T01:28:34.398Z,0.00
2023-03-27T01:29:34.378Z,0.00
2023-03-27T01:30:34.495Z,0.00
2023-03-27T01:31:34.409Z,0.00
2023-03-27T01:32:34.404Z,0.00
2023-03-27T01:33:34.356Z,0.00
2023-03-27T01:34:34.389Z,0.00
2023-03-27T01:35:34.385Z,0.00
2023-03-27T01:36:34.353Z,0.00
2023-03-27T01:37:34.332Z,0.00
2023-03-27T01:38:34.324Z,0.00
2023-03-27T01:39:34.308Z,0.00
2023-03-27T01:40:34.333Z,0.00
2023-03-27T01:41:34.298Z,0.00
2023-03-27T01:42:34.300Z,0.00
2023-03-27T01:43:34.289Z,0.00
2023-03-27T01:44:43.345Z,0.00
2023-03-27T01:45:35.299Z,0.00
2023-03-27T01:46:34.374Z,0.00
2023-03-27T01:47:34.320Z,0.00
2023-03-27T01:48:34.252Z,0.00
2023-03-27T01:49:34.251Z,0.00
2023-03-27T01:50:34.273Z,0.00
2023-03-27T01:51:34.237Z,0.00
2023-03-27T01:52:34.228Z,0.00
2023-03-27T01:53:34.219Z,0.00
2023-03-27T01:54:34.224Z,0.00
2023-03-27T01:55:34.291Z,0.00
2023-03-27T01:56:34.230Z,0.00
2023-03-27T01:57:34.246Z,0.00
2023-03-27T01:58:34.170Z,0.00
2023-03-27T01:59:34.169Z,0.00
2023-03-27T02:00:51.432Z,0.00
2023-03-27T02:01:35.175Z,0.00
2023-03-27T02:02:34.200Z,0.00
2023-03-27T02:03:34.144Z,0.00
2023-03-27T02:04:34.232Z,0.00
2023-03-27T02:05:34.146Z,0.00
2023-03-27T02:06:34.119Z,0.00
2023-03-27T02:07:34.128Z,0.00
2023-03-27T02:08:34.158Z,0.00
2023-03-27T02:09:34.101Z,0.00
2023-03-27T02:10:34.112Z,0.00
2023-03-27T02:11:34.112Z,0.00
2023-03-27T02:12:34.106Z,0.00
2023-03-27T02:13:34.073Z,0.00
2023-03-27T02:14:34.063Z,0.00
2023-03-27T02:15:34.101Z,0.00
2023-03-27T02:16:34.163Z,0.00
2023-03-27T02:17:34.126Z,0.00
2023-03-27T02:18:34.028Z,0.00
2023-03-27T02:19:34.037Z,0.00
2023-03-27T02:20:34.045Z,0.00
2023-03-27T02:21:34.013Z,0.00
2023-03-27T02:22:38.231Z,0.00
2023-03-27T02:23:34.989Z,0.00
2023-03-27T02:24:33.988Z,0.00
2023-03-27T02:25:34.027Z,0.00
2023-03-27T02:26:34.961Z,0.00
2023-03-27T02:27:33.979Z,0.00
2023-03-27T02:28:33.955Z,0.00
2023-03-27T02:29:33.949Z,0.00
2023-03-27T02:30:33.961Z,0.00
2023-03-27T02:31:35.054Z,0.00
2023-03-27T02:32:34.997Z,0.00
2023-03-27T02:33:33.943Z,0.00
2023-03-27T02:34:33.947Z,0.00
2023-03-27T02:35:33.945Z,0.00
2023-03-27T02:36:33.900Z,0.00
2023-03-27T02:37:33.889Z,0.00
2023-03-27T02:38:33.881Z,0.00
2023-03-27T02:39:33.872Z,0.00
2023-03-27T02:40:40.065Z,0.00
2023-03-27T02:41:34.861Z,0.00
2023-03-27T02:42:33.853Z,0.00
2023-03-27T02:43:33.840Z,0.00
2023-03-27T02:44:33.840Z,0.00
2023-03-27T02:45:33.871Z,0.00
2023-03-27T02:46:33.887Z,0.00
2023-03-27T02:47:33.832Z,0.00
2023-03-27T02:48:33.838Z,0.00
2023-03-27T02:49:33.824Z,0.00
2023-03-27T02:50:33.810Z,0.00
2023-03-27T02:51:33.817Z,0.00
2023-03-27T02:52:33.786Z,0.00
2023-03-27T02:53:33.763Z,0.00
2023-03-27T02:54:33.780Z,0.00
2023-03-27T02:55:33.760Z,0.00
2023-03-27T02:56:33.833Z,0.00
2023-03-27T02:57:33.737Z,0.00
2023-03-27T02:58:33.748Z,0.00
2023-03-27T02:59:33.727Z,0.00
2023-03-27T03:00:33.724Z,0.00
2023-03-27T03:01:33.780Z,0.00
2023-03-27T03:02:33.879Z,0.00
2023-03-27T03:03:33.812Z,0.00
2023-03-27T03:04:33.685Z,0.00
2023-03-27T03:05:33.680Z,0.00
2023-03-27T03:06:33.711Z,0.00
2023-03-27T03:07:33.677Z,0.00
2023-03-27T03:08:33.656Z,0.00
2023-03-27T03:09:33.648Z,0.00
2023-03-27T03:10:34.643Z,0.00
2023-03-27T03:11:33.660Z,0.00
2023-03-27T03:12:33.625Z,0.00
2023-03-27T03:13:33.631Z,0.00
2023-03-27T03:14:33.654Z,0.00
2023-03-27T03:15:33.680Z,0.00
2023-03-27T03:16:33.672Z,0.00
2023-03-27T03:17:33.646Z,0.00
2023-03-27T03:18:33.582Z,0.00
2023-03-27T03:19:33.586Z,0.00
2023-03-27T03:20:33.581Z,0.00
2023-03-27T03:21:33.573Z,0.00
2023-03-27T03:22:34.558Z,0.00
2023-03-27T03:23:33.602Z,0.00
2023-03-27T03:24:33.545Z,0.00
2023-03-27T03:25:33.538Z,0.00
2023-03-27T03:26:33.544Z,0.00
2023-03-27T03:27:33.523Z,0.00
2023-03-27T03:28:33.511Z,0.00
2023-03-27T03:29:33.506Z,0.00
2023-03-27T03:30:33.523Z,0.00
2023-03-27T03:31:33.518Z,0.00
2023-03-27T03:32:33.503Z,0.00
2023-03-27T03:33:33.471Z,0.00
2023-03-27T03:34:33.460Z,0.00
2023-03-27T03:35:33.514Z,0.00
2023-03-27T03:36:33.477Z,0.00
2023-03-27T03:37:33.440Z,0.00
2023-03-27T03:38:37.829Z,0.00
2023-03-27T03:39:33.422Z,0.00
2023-03-27T03:40:33.420Z,0.00
2023-03-27T03:41:33.441Z,0.00
2023-03-27T03:42:33.426Z,0.00
2023-03-27T03:43:33.400Z,0.00
2023-03-27T03:44:33.393Z,0.00
2023-03-27T03:45:33.376Z,0.00
2023-03-27T03:46:33.418Z,0.00
2023-03-27T03:47:33.408Z,0.00
2023-03-27T03:48:33.359Z,0.00
2023-03-27T03:49:33.361Z,0.00
2023-03-27T03:50:33.338Z,0.00
2023-03-27T03:51:33.325Z,0.00
2023-03-27T03:52:33.350Z,0.00
2023-03-27T03:53:33.328Z,0.00
2023-03-27T03:54:33.319Z,0.00
2023-03-27T03:55:33.295Z,0.00
2023-03-27T03:56:33.329Z,0.00
2023-03-27T03:57:33.341Z,0.00
2023-03-27T03:58:34.961Z,0.00
2023-03-27T03:59:33.273Z,0.00
2023-03-27T04:00:33.267Z,0.00
2023-03-27T04:01:33.303Z,0.00
2023-03-27T04:02:33.345Z,0.00
2023-03-27T04:03:33.271Z,0.00
2023-03-27T04:04:34.018Z,0.00
2023-03-27T04:05:34.248Z,0.00
2023-03-27T04:06:33.217Z,0.00
2023-03-27T04:07:33.240Z,0.00
2023-03-27T04:08:33.197Z,0.00
2023-03-27T04:09:33.192Z,0.00
2023-03-27T04:10:33.189Z,0.00
2023-03-27T04:11:33.178Z,0.00
2023-03-27T04:12:33.196Z,0.00
2023-03-27T04:13:33.170Z,0.00
2023-03-27T04:14:33.166Z,0.00
2023-03-27T04:15:33.157Z,0.00
2023-03-27T04:16:33.185Z,0.00
2023-03-27T04:17:33.265Z,0.00
2023-03-27T04:18:33.324Z,0.00
2023-03-27T04:19:33.129Z,0.00
2023-03-27T04:20:33.129Z,0.00
2023-03-27T04:21:33.100Z,0.00
2023-03-27T04:22:33.146Z,0.00
2023-03-27T04:23:33.101Z,0.00
2023-03-27T04:24:33.083Z,0.00
2023-03-27T04:25:33.093Z,0.00
2023-03-27T04:26:33.072Z,0.00
2023-03-27T04:27:33.087Z,0.00
2023-03-27T04:28:33.051Z,0.00
2023-03-27T04:29:33.044Z,0.00
2023-03-27T04:30:33.116Z,0.00
2023-03-27T04:31:33.066Z,0.00
2023-03-27T04:32:33.096Z,0.00
2023-03-27T04:33:33.016Z,0.00
2023-03-27T04:34:34.003Z,0.00
2023-03-27T04:35:33.108Z,0.00
2023-03-27T04:36:33.058Z,0.00
2023-03-27T04:37:33.017Z,0.00
2023-03-27T04:38:32.987Z,0.00
2023-03-27T04:39:32.974Z,0.00
2023-03-27T04:40:32.984Z,0.00
2023-03-27T04:41:32.970Z,0.00
2023-03-27T04:42:32.982Z,0.00
2023-03-27T04:43:32.953Z,0.00
2023-03-27T04:44:32.932Z,0.00
2023-03-27T04:45:32.938Z,0.00
2023-03-27T04:46:32.937Z,0.00
2023-03-27T04:47:32.985Z,0.00
2023-03-27T04:48:32.910Z,0.00
2023-03-27T04:49:32.891Z,0.00
2023-03-27T04:50:32.895Z,0.00
2023-03-27T04:51:32.877Z,0.00
2023-03-27T04:52:32.873Z,0.00
2023-03-27T04:53:32.895Z,0.00
2023-03-27T04:54:32.862Z,0.00
2023-03-27T04:55:32.925Z,0.00
2023-03-27T04:56:32.884Z,0.00
2023-03-27T04:57:33.529Z,0.00
2023-03-27T04:58:33.715Z,0.00
2023-03-27T04:59:32.821Z,0.00
2023-03-27T05:00:32.819Z,0.00
2023-03-27T05:01:32.833Z,0.00
2023-03-27T05:02:32.822Z,0.00
2023-03-27T05:03:32.857Z,0.00
2023-03-27T05:04:32.804Z,0.00
2023-03-27T05:05:32.771Z,0.00
2023-03-27T05:06:32.775Z,0.00
2023-03-27T05:07:32.770Z,5.62
2023-03-27T05:08:32.831Z,5.62
2023-03-27T05:09:32.748Z,5.62
2023-03-27T05:10:32.742Z,5.62
2023-03-27T05:11:32.725Z,5.62
2023-03-27T05:12:32.719Z,5.62
2023-03-27T05:13:32.738Z,5.62
2023-03-27T05:14:32.707Z,5.62
2023-03-27T05:15:32.700Z,5.62
2023-03-27T05:16:32.719Z,5.62
2023-03-27T05:17:32.721Z,11.25
2023-03-27T05:18:32.695Z,11.25
2023-03-27T05:19:32.662Z,11.25
2023-03-27T05:20:32.661Z,11.25
2023-03-27T05:21:32.658Z,11.25
2023-03-27T05:22:32.645Z,16.88
2023-03-27T05:23:32.654Z,16.88
2023-03-27T05:24:32.626Z,22.50
2023-03-27T05:25:32.669Z,22.50
2023-03-27T05:26:32.609Z,22.50
2023-03-27T05:27:32.605Z,28.12
2023-03-27T05:28:32.619Z,28.12
2023-03-27T05:29:46.432Z,28.12
2023-03-27T05:30:33.599Z,28.12
2023-03-27T05:31:32.611Z,16.88
2023-03-27T05:32:32.577Z,11.25
2023-03-27T05:33:32.608Z,11.25
2023-03-27T05:34:32.567Z,16.88
2023-03-27T05:35:32.575Z,16.88
2023-03-27T05:36:32.551Z,16.88
2023-03-27T05:37:32.629Z,22.50
2023-03-27T05:38:32.544Z,22.50
2023-03-27T05:39:32.517Z,22.50
2023-03-27T05:40:32.510Z,22.50
2023-03-27T05:41:32.496Z,22.50
2023-03-27T05:42:32.508Z,22.50
2023-03-27T05:43:32.514Z,28.12
2023-03-27T05:44:32.484Z,28.12
2023-03-27T05:45:32.476Z,33.75
2023-03-27T05:46:32.520Z,33.75
2023-03-27T05:47:32.480Z,33.75
2023-03-27T05:48:32.524Z,33.75
2023-03-27T05:49:34.104Z,39.38
2023-03-27T05:50:33.462Z,45.00
2023-03-27T05:51:32.433Z,50.62
2023-03-27T05:52:32.413Z,56.25
2023-03-27T05:53:32.425Z,50.62
2023-03-27T05:54:32.398Z,56.25
2023-03-27T05:55:32.425Z,61.88
2023-03-27T05:56:32.454Z,61.88
2023-03-27T05:57:32.366Z,61.88
2023-03-27T05:58:32.395Z,61.88
2023-03-27T05:59:32.367Z,61.88
2023-03-27T06:00:32.347Z,61.88
2023-03-27T06:01:32.347Z,67.50
2023-03-27T06:02:32.440Z,67.50
2023-03-27T06:03:32.497Z,67.50
2023-03-27T06:04:32.378Z,67.50
2023-03-27T06:05:32.313Z,67.50
2023-03-27T06:06:33.224Z,67.50
2023-03-27T06:07:32.298Z,67.50
2023-03-27T06:08:32.337Z,67.50
2023-03-27T06:09:32.322Z,73.12
2023-03-27T06:10:32.275Z,73.12
2023-03-27T06:11:32.282Z,73.12
2023-03-27T06:12:32.256Z,73.12
2023-03-27T06:13:32.246Z,73.12
2023-03-27T06:14:32.281Z,73.12
2023-03-27T06:15:32.243Z,78.75
2023-03-27T06:16:33.468Z,78.75
2023-03-27T06:17:32.289Z,78.75
2023-03-27T06:18:32.215Z,78.75
2023-03-27T06:19:32.336Z,84.38
2023-03-27T06:20:32.193Z,84.38
2023-03-27T06:21:32.186Z,90.00
2023-03-27T06:22:32.191Z,95.62
2023-03-27T06:23:32.167Z,106.88
2023-03-27T06:24:32.197Z,95.62
2023-03-27T06:25:32.173Z,90.00
2023-03-27T06:26:32.156Z,67.50
2023-03-27T06:27:32.162Z,61.88
2023-03-27T06:28:32.130Z,61.88
2023-03-27T06:29:32.156Z,67.50
2023-03-27T06:30:32.120Z,90.00
2023-03-27T06:31:32.134Z,106.88
2023-03-27T06:32:32.166Z,95.62
2023-03-27T06:33:32.104Z,73.12
2023-03-27T06:34:32.123Z,84.38
2023-03-27T06:35:32.115Z,95.62
2023-03-27T06:36:32.090Z,95.62
2023-03-27T06:37:32.080Z,95.62
2023-03-27T06:38:32.063Z,95.62
2023-03-27T06:39:32.082Z,101.25
2023-03-27T06:40:33.054Z,101.25
2023-03-27T06:41:32.041Z,118.12
2023-03-27T06:42:32.037Z,123.75
2023-03-27T06:43:32.030Z,118.12
2023-03-27T06:44:32.055Z,118.12
2023-03-27T06:45:32.077Z,118.12
2023-03-27T06:46:42.593Z,135.00
2023-03-27T06:47:38.717Z,129.38
2023-03-27T06:48:34.034Z,112.50
2023-03-27T06:49:32.021Z,95.62
2023-03-27T06:50:31.981Z,106.88
2023-03-27T06:51:31.975Z,112.50
2023-03-27T06:52:31.968Z,106.88
2023-03-27T06:53:35.514Z,129.38
2023-03-27T06:54:33.985Z,101.25
2023-03-27T06:55:31.956Z,106.88
2023-03-27T06:56:31.936Z,84.38
2023-03-27T06:57:31.933Z,84.38
2023-03-27T06:58:31.935Z,67.50
2023-03-27T06:59:31.950Z,95.62
2023-03-27T07:00:31.909Z,73.12
2023-03-27T07:01:31.936Z,84.38
2023-03-27T07:02:31.936Z,84.38
2023-03-27T07:03:31.893Z,95.62
2023-03-27T07:04:31.983Z,106.88
2023-03-27T07:05:31.929Z,84.38
2023-03-27T07:06:31.869Z,95.62
2023-03-27T07:07:31.883Z,67.50
2023-03-27T07:08:31.853Z,67.50
2023-03-27T07:09:31.857Z,73.12
2023-03-27T07:10:31.846Z,73.12
2023-03-27T07:11:32.197Z,73.12
2023-03-27T07:12:32.816Z,78.75
2023-03-27T07:13:31.803Z,84.38
2023-03-27T07:14:31.838Z,67.50
2023-03-27T07:15:31.799Z,67.50
2023-03-27T07:16:31.875Z,73.12
2023-03-27T07:17:42.085Z,67.50
2023-03-27T07:18:33.837Z,73.12
2023-03-27T07:19:31.810Z,95.62
2023-03-27T07:20:31.759Z,84.38
2023-03-27T07:21:31.771Z,67.50
2023-03-27T07:22:31.744Z,73.12
2023-03-27T07:23:31.735Z,118.12
2023-03-27T07:24:31.747Z,106.88
2023-03-27T07:25:31.731Z,78.75
2023-03-27T07:26:31.717Z,118.12
2023-03-27T07:27:31.696Z,123.75
2023-03-27T07:28:31.696Z,123.75
2023-03-27T07:29:31.720Z,123.75
2023-03-27T07:30:31.680Z,78.75
2023-03-27T07:31:51.082Z,140.62
2023-03-27T07:32:37.086Z,90.00
2023-03-27T07:33:32.691Z,106.88
2023-03-27T07:34:31.672Z,78.75
2023-03-27T07:35:31.642Z,78.75
2023-03-27T07:36:31.632Z,135.00
2023-03-27T07:37:31.631Z,118.12
2023-03-27T07:38:31.626Z,129.38
2023-03-27T07:39:31.641Z,73.12
2023-03-27T07:40:39.422Z,67.50
2023-03-27T07:41:33.611Z,123.75
2023-03-27T07:42:31.617Z,129.38
2023-03-27T07:43:31.587Z,129.38
2023-03-27T07:44:31.618Z,135.00
2023-03-27T07:45:31.600Z,135.00
2023-03-27T07:46:31.557Z,135.00
2023-03-27T07:47:31.588Z,135.00
2023-03-27T07:48:31.544Z,135.00
2023-03-27T07:49:39.189Z,135.00
2023-03-27T07:50:32.552Z,135.00
2023-03-27T07:51:31.530Z,135.00
2023-03-27T07:52:31.524Z,135.00
2023-03-27T07:53:33.450Z,129.38
2023-03-27T07:54:31.535Z,140.62
2023-03-27T07:55:31.498Z,157.50
2023-03-27T07:56:31.504Z,157.50
2023-03-27T07:57:33.174Z,163.12
2023-03-27T07:58:33.473Z,140.62
2023-03-27T07:59:31.468Z,118.12
2023-03-27T08:00:31.659Z,112.50
2023-03-27T08:01:31.447Z,112.50
2023-03-27T08:02:31.487Z,163.12
2023-03-27T08:03:31.813Z,106.88
2023-03-27T08:04:31.654Z,95.62
2023-03-27T08:05:31.452Z,78.75
2023-03-27T08:06:31.417Z,73.12
2023-03-27T08:07:31.414Z,73.12
2023-03-27T08:08:31.391Z,78.75
2023-03-27T08:09:31.402Z,84.38
2023-03-27T08:10:31.637Z,101.25
2023-03-27T08:11:31.424Z,146.25
2023-03-27T08:12:31.362Z,123.75
2023-03-27T08:13:31.381Z,84.38
2023-03-27T08:14:31.341Z,84.38
2023-03-27T08:15:31.378Z,90.00
2023-03-27T08:16:31.357Z,101.25
2023-03-27T08:17:31.433Z,106.88
2023-03-27T08:18:31.316Z,101.25
2023-03-27T08:19:31.303Z,112.50
2023-03-27T08:20:31.318Z,112.50
2023-03-27T08:21:31.296Z,118.12
2023-03-27T08:22:31.283Z,123.75
2023-03-27T08:23:31.291Z,78.75
2023-03-27T08:24:31.275Z,73.12
2023-03-27T08:25:31.290Z,67.50
2023-03-27T08:26:31.247Z,73.12
2023-03-27T08:27:31.265Z,73.12
2023-03-27T08:28:31.261Z,73.12
2023-03-27T08:29:31.230Z,67.50
2023-03-27T08:30:31.296Z,73.12
2023-03-27T08:31:31.280Z,73.12
2023-03-27T08:32:31.239Z,78.75
2023-03-27T08:33:31.251Z,95.62
2023-03-27T08:34:31.209Z,135.00
2023-03-27T08:35:31.236Z,84.38
2023-03-27T08:36:31.202Z,73.12
2023-03-27T08:37:31.167Z,67.50
2023-03-27T08:38:31.169Z,78.75
2023-03-27T08:39:31.155Z,78.75
2023-03-27T08:40:31.194Z,78.75
2023-03-27T08:41:31.146Z,90.00
2023-03-27T08:42:31.127Z,112.50
2023-03-27T08:43:31.141Z,101.25
2023-03-27T08:44:31.157Z,106.88
2023-03-27T08:45:31.142Z,123.75
2023-03-27T08:46:31.144Z,112.50
2023-03-27T08:47:31.103Z,90.00
2023-03-27T08:48:31.099Z,101.25
2023-03-27T08:49:31.079Z,135.00
2023-03-27T08:50:31.093Z,140.62
2023-03-27T08:51:31.056Z,101.25
2023-03-27T08:52:31.062Z,123.75
2023-03-27T08:53:31.059Z,123.75
2023-03-27T08:54:31.049Z,146.25
2023-03-27T08:55:31.080Z,146.25
2023-03-27T08:56:31.037Z,146.25
2023-03-27T08:57:31.024Z,157.50
2023-03-27T08:58:31.029Z,151.88
2023-03-27T08:59:31.003Z,151.88
2023-03-27T09:00:31.028Z,140.62
2023-03-27T09:01:31.089Z,135.00
2023-03-27T09:02:31.068Z,146.25
2023-03-27T09:03:31.110Z,157.50
2023-03-27T09:04:30.964Z,163.12
2023-03-27T09:05:30.993Z,157.50
2023-03-27T09:06:30.968Z,151.88
2023-03-27T09:07:30.941Z,129.38
2023-03-27T09:08:30.934Z,157.50
2023-03-27T09:09:31.096Z,157.50
2023-03-27T09:10:30.949Z,168.75
2023-03-27T09:11:30.915Z,174.38
2023-03-27T09:12:30.913Z,191.25
2023-03-27T09:13:30.903Z,180.00
2023-03-27T09:14:30.895Z,90.00
2023-03-27T09:15:31.242Z,78.75
2023-03-27T09:16:30.923Z,140.62
2023-03-27T09:17:30.926Z,168.75
2023-03-27T09:18:30.883Z,118.12
2023-03-27T09:19:30.853Z,84.38
2023-03-27T09:20:31.217Z,84.38
2023-03-27T09:21:30.837Z,95.62
2023-03-27T09:22:30.829Z,168.75
2023-03-27T09:23:30.830Z,174.38
2023-03-27T09:24:30.828Z,163.12
2023-03-27T09:25:30.828Z,163.12
2023-03-27T09:26:30.802Z,151.88
2023-03-27T09:27:30.790Z,146.25
2023-03-27T09:28:30.799Z,95.62
2023-03-27T09:29:30.784Z,84.38
2023-03-27T09:30:30.819Z,157.50
2023-03-27T09:31:30.805Z,73.12
2023-03-27T09:32:33.549Z,157.50
2023-03-27T09:33:30.761Z,163.12
2023-03-27T09:34:30.754Z,168.75
2023-03-27T09:35:30.785Z,163.12
2023-03-27T09:36:30.772Z,95.62
2023-03-27T09:37:30.720Z,78.75
2023-03-27T09:38:30.716Z,67.50
2023-03-27T09:39:30.724Z,84.38
2023-03-27T09:40:30.713Z,151.88
2023-03-27T09:41:30.719Z,157.50
2023-03-27T09:42:30.709Z,157.50
2023-03-27T09:43:30.686Z,157.50
2023-03-27T09:44:30.722Z,157.50
2023-03-27T09:45:30.673Z,168.75
2023-03-27T09:46:30.709Z,163.12
2023-03-27T09:47:30.731Z,168.75
2023-03-27T09:48:30.631Z,174.38
2023-03-27T09:49:30.638Z,185.62
2023-03-27T09:50:30.628Z,185.62
2023-03-27T09:51:30.682Z,146.25
2023-03-27T09:52:30.607Z,191.25
2023-03-27T09:53:30.616Z,129.38
2023-03-27T09:54:30.609Z,191.25
2023-03-27T09:55:30.611Z,112.50
2023-03-27T09:56:30.599Z,101.25
2023-03-27T09:57:30.568Z,112.50
2023-03-27T09:58:30.622Z,90.00
2023-03-27T09:59:30.561Z,90.00
2023-03-27T10:00:30.608Z,90.00
2023-03-27T10:01:30.647Z,101.25
2023-03-27T10:02:30.561Z,84.38
2023-03-27T10:03:31.571Z,140.62
2023-03-27T10:04:30.515Z,90.00
2023-03-27T10:05:30.509Z,78.75
2023-03-27T10:06:30.548Z,73.12
2023-03-27T10:07:30.516Z,73.12
2023-03-27T10:08:30.493Z,73.12
2023-03-27T10:09:30.481Z,73.12
2023-03-27T10:10:30.478Z,78.75
2023-03-27T10:11:30.521Z,90.00
2023-03-27T10:12:30.488Z,95.62
2023-03-27T10:13:30.476Z,106.88
2023-03-27T10:14:30.445Z,90.00
2023-03-27T10:15:31.171Z,78.75
2023-03-27T10:16:30.478Z,78.75
2023-03-27T10:17:30.497Z,84.38
2023-03-27T10:18:30.488Z,106.88
2023-03-27T10:19:30.425Z,95.62
2023-03-27T10:20:30.421Z,90.00
2023-03-27T10:21:30.435Z,84.38
2023-03-27T10:22:30.468Z,151.88
2023-03-27T10:23:30.467Z,157.50
2023-03-27T10:24:30.369Z,146.25
2023-03-27T10:25:30.379Z,95.62
2023-03-27T10:26:30.355Z,90.00
2023-03-27T10:27:30.390Z,118.12
2023-03-27T10:28:30.339Z,95.62
2023-03-27T10:29:30.341Z,90.00
2023-03-27T10:30:30.317Z,84.38
2023-03-27T10:31:30.375Z,73.12
2023-03-27T10:32:30.358Z,67.50
2023-03-27T10:33:30.311Z,73.12
2023-03-27T10:34:30.294Z,123.75
2023-03-27T10:35:30.355Z,78.75
2023-03-27T10:36:30.327Z,163.12
2023-03-27T10:37:30.286Z,157.50
2023-03-27T10:38:30.254Z,157.50
2023-03-27T10:39:30.328Z,157.50
2023-03-27T10:40:30.241Z,163.12
2023-03-27T10:41:30.238Z,163.12
2023-03-27T10:42:30.255Z,157.50
2023-03-27T10:43:30.236Z,95.62
2023-03-27T10:44:30.246Z,112.50
2023-03-27T10:45:30.204Z,78.75
2023-03-27T10:46:30.267Z,73.12
2023-03-27T10:47:30.226Z,168.75
2023-03-27T10:48:30.190Z,95.62
2023-03-27T10:49:30.179Z,101.25
2023-03-27T10:50:30.190Z,180.00
2023-03-27T10:51:39.526Z,174.38
2023-03-27T10:52:32.176Z,174.38
2023-03-27T10:53:30.208Z,174.38
2023-03-27T10:54:31.812Z,168.75
2023-03-27T10:55:31.241Z,157.50
2023-03-27T10:56:30.115Z,112.50
2023-03-27T10:57:30.149Z,84.38
2023-03-27T10:58:31.114Z,129.38
2023-03-27T10:59:41.174Z,78.75
2023-03-27T11:00:32.090Z,140.62
2023-03-27T11:01:30.088Z,157.50
2023-03-27T11:02:30.106Z,157.50
2023-03-27T11:03:30.097Z,151.88
2023-03-27T11:04:30.056Z,151.88
2023-03-27T11:05:30.083Z,146.25
2023-03-27T11:06:30.047Z,78.75
2023-03-27T11:07:30.062Z,151.88
2023-03-27T11:08:30.041Z,146.25
2023-03-27T11:09:30.031Z,146.25
2023-03-27T11:10:30.009Z,151.88
2023-03-27T11:11:30.014Z,151.88
2023-03-27T11:12:30.084Z,151.88
2023-03-27T11:13:29.986Z,151.88
2023-03-27T11:14:29.989Z,157.50
2023-03-27T11:15:29.965Z,157.50
2023-03-27T11:16:30.993Z,157.50
2023-03-27T11:17:30.063Z,151.88
2023-03-27T11:18:29.953Z,151.88
2023-03-27T11:19:29.955Z,157.50
2023-03-27T11:20:29.947Z,163.12
2023-03-27T11:21:29.929Z,163.12
2023-03-27T11:22:29.984Z,157.50
2023-03-27T11:23:30.910Z,157.50
2023-03-27T11:24:29.946Z,151.88
2023-03-27T11:25:29.908Z,151.88
2023-03-27T11:26:29.887Z,157.50
2023-03-27T11:27:30.086Z,163.12
2023-03-27T11:28:29.906Z,168.75
2023-03-27T11:29:29.864Z,174.38
2023-03-27T11:30:29.866Z,185.62
2023-03-27T11:31:29.896Z,185.62
2023-03-27T11:32:29.888Z,191.25
2023-03-27T11:33:29.909Z,129.38
2023-03-27T11:34:29.878Z,106.88
2023-03-27T11:35:29.887Z,101.25
2023-03-27T11:36:29.993Z,78.75
2023-03-27T11:37:29.809Z,73.12
2023-03-27T11:38:29.823Z,67.50
2023-03-27T11:39:29.791Z,61.88
2023-03-27T11:40:29.794Z,61.88
2023-03-27T11:41:29.780Z,67.50
2023-03-27T11:42:29.768Z,118.12
2023-03-27T11:43:29.928Z,151.88
2023-03-27T11:44:29.764Z,163.12
2023-03-27T11:45:29.750Z,174.38
2023-03-27T11:46:29.800Z,174.38
2023-03-27T11:47:29.761Z,157.50
2023-03-27T11:48:29.754Z,168.75
2023-03-27T11:49:29.727Z,163.12
2023-03-27T11:50:29.718Z,163.12
2023-03-27T11:51:29.707Z,163.12
2023-03-27T11:52:29.727Z,151.88
2023-03-27T11:53:29.717Z,151.88
2023-03-27T11:54:29.703Z,151.88
2023-03-27T11:55:31.351Z,151.88
2023-03-27T11:56:29.698Z,151.88
2023-03-27T11:57:29.748Z,151.88
2023-03-27T11:58:29.688Z,157.50
2023-03-27T11:59:29.642Z,157.50
2023-03-27T12:00:29.652Z,157.50
2023-03-27T12:01:29.638Z,151.88
2023-03-27T12:02:29.724Z,157.50
2023-03-27T12:03:29.760Z,157.50
2023-03-27T12:04:29.620Z,151.88
2023-03-27T12:05:29.600Z,151.88
2023-03-27T12:06:29.769Z,151.88
2023-03-27T12:07:35.932Z,151.88
2023-03-27T12:08:31.602Z,151.88
2023-03-27T12:09:29.577Z,151.88
2023-03-27T12:10:29.598Z,146.25
2023-03-27T12:11:29.569Z,146.25
2023-03-27T12:12:29.553Z,151.88
2023-03-27T12:13:40.588Z,151.88
2023-03-27T12:14:40.808Z,151.88
2023-03-27T12:15:31.561Z,151.88
2023-03-27T12:16:29.709Z,146.25
2023-03-27T12:17:29.553Z,140.62
2023-03-27T12:18:35.890Z,140.62
2023-03-27T12:19:36.417Z,129.38
2023-03-27T12:20:31.493Z,118.12
2023-03-27T12:21:29.482Z,118.12
2023-03-27T12:22:29.480Z,123.75
2023-03-27T12:23:29.501Z,101.25
2023-03-27T12:24:29.517Z,95.62
2023-03-27T12:25:29.456Z,67.50
2023-03-27T12:26:29.442Z,73.12
2023-03-27T12:27:29.445Z,84.38
2023-03-27T12:28:29.455Z,90.00
2023-03-27T12:29:29.429Z,106.88
2023-03-27T12:30:29.420Z,101.25
2023-03-27T12:31:29.458Z,140.62
2023-03-27T12:32:29.519Z,146.25
2023-03-27T12:33:29.429Z,140.62
2023-03-27T12:34:29.389Z,135.00
2023-03-27T12:35:29.404Z,135.00
2023-03-27T12:36:29.383Z,135.00
2023-03-27T12:37:29.370Z,135.00
2023-03-27T12:38:29.397Z,135.00
2023-03-27T12:39:29.347Z,140.62
2023-03-27T12:40:29.342Z,146.25
2023-03-27T12:41:29.332Z,140.62
2023-03-27T12:42:29.324Z,146.25
2023-03-27T12:43:29.357Z,146.25
2023-03-27T12:44:29.328Z,151.88
2023-03-27T12:45:29.310Z,151.88
2023-03-27T12:46:29.330Z,151.88
2023-03-27T12:47:29.306Z,151.88
2023-03-27T12:48:29.310Z,146.25
2023-03-27T12:49:40.602Z,146.25
2023-03-27T12:50:31.285Z,146.25
2023-03-27T12:51:29.272Z,146.25
2023-03-27T12:52:29.247Z,140.62
2023-03-27T12:53:29.251Z,140.62
2023-03-27T12:54:29.598Z,140.62